El Plumerillo, Argentina
Current Conditions -  °F | °C
As of 2:00 PM on Friday 19 Dec 2014 (Local Time) from SAME Reporting Station
Few Clouds Few Clouds  
Wind Chill: 33°   Ceiling: Unl
Heat Index: 33°   Visibility: 6mi
Dew Point: 10°   Wind: 9mph
Humidity: 24%   Direction: 360°N
Pressure: 29.56"   Gusts: NA
Location:  32.83°S, 68.78°W
Report Text: SAME 191700Z 36008KT 9999 FEW040 33/10 Q1001
Loading
Personal Weather Stations






























Interactive Weather Map New forecast layout! Learn more

10-Day Weather Forecast

Advertisements
Track Severe Weather on mobile